sensor_id;sensor_type;location;lat;lon;timestamp;P1;durP1;ratioP1;P2;durP2;ratioP2
13012;SDS011;22580;57.670;12.006;2023-08-21T00:00:16;0.70;;;0.70;;
13012;SDS011;22580;57.670;12.006;2023-08-21T00:02:43;0.70;;;0.70;;
13012;SDS011;22580;57.670;12.006;2023-08-21T00:05:10;0.30;;;0.30;;
13012;SDS011;22580;57.670;12.006;2023-08-21T00:07:37;0.40;;;0.40;;
13012;SDS011;22580;57.670;12.006;2023-08-21T00:10:05;0.77;;;0.77;;
13012;SDS011;22580;57.670;12.006;2023-08-21T00:12:34;0.80;;;0.80;;
13012;SDS011;22580;57.670;12.006;2023-08-21T00:15:02;1.00;;;1.00;;
13012;SDS011;22580;57.670;12.006;2023-08-21T00:17:30;1.00;;;1.00;;
13012;SDS011;22580;57.670;12.006;2023-08-21T00:19:58;0.68;;;0.68;;
13012;SDS011;22580;57.670;12.006;2023-08-21T00:22:25;0.75;;;0.75;;
13012;SDS011;22580;57.670;12.006;2023-08-21T00:24:52;0.80;;;0.80;;
13012;SDS011;22580;57.670;12.006;2023-08-21T00:27:18;0.75;;;0.65;;
13012;SDS011;22580;57.670;12.006;2023-08-21T00:29:46;0.60;;;0.60;;
13012;SDS011;22580;57.670;12.006;2023-08-21T00:32:15;0.60;;;0.60;;
13012;SDS011;22580;57.670;12.006;2023-08-21T00:34:42;0.63;;;0.63;;
13012;SDS011;22580;57.670;12.006;2023-08-21T00:37:09;0.40;;;0.40;;
13012;SDS011;22580;57.670;12.006;2023-08-21T00:39:36;0.55;;;0.55;;
13012;SDS011;22580;57.670;12.006;2023-08-21T00:42:03;0.70;;;0.70;;
13012;SDS011;22580;57.670;12.006;2023-08-21T00:44:30;0.30;;;0.30;;
13012;SDS011;22580;57.670;12.006;2023-08-21T00:46:57;0.40;;;0.40;;
13012;SDS011;22580;57.670;12.006;2023-08-21T00:49:25;0.40;;;0.40;;
13012;SDS011;22580;57.670;12.006;2023-08-21T00:51:53;0.20;;;0.20;;
13012;SDS011;22580;57.670;12.006;2023-08-21T00:54:21;0.30;;;0.30;;
13012;SDS011;22580;57.670;12.006;2023-08-21T00:56:48;0.38;;;0.30;;
13012;SDS011;22580;57.670;12.006;2023-08-21T00:59:18;0.30;;;0.30;;
13012;SDS011;22580;57.670;12.006;2023-08-21T01:01:45;0.50;;;0.50;;
13012;SDS011;22580;57.670;12.006;2023-08-21T01:04:15;0.50;;;0.50;;
13012;SDS011;22580;57.670;12.006;2023-08-21T01:06:44;0.57;;;0.57;;
13012;SDS011;22580;57.670;12.006;2023-08-21T01:09:12;0.32;;;0.32;;
13012;SDS011;22580;57.670;12.006;2023-08-21T01:11:46;0.30;;;0.30;;
13012;SDS011;22580;57.670;12.006;2023-08-21T01:14:20;0.30;;;0.30;;
13012;SDS011;22580;57.670;12.006;2023-08-21T01:16:55;0.25;;;0.25;;
13012;SDS011;22580;57.670;12.006;2023-08-21T01:19:26;0.30;;;0.30;;
13012;SDS011;22580;57.670;12.006;2023-08-21T01:21:59;0.20;;;0.20;;
13012;SDS011;22580;57.670;12.006;2023-08-21T01:24:28;0.30;;;0.30;;
13012;SDS011;22580;57.670;12.006;2023-08-21T01:26:55;0.30;;;0.30;;
13012;SDS011;22580;57.670;12.006;2023-08-21T01:29:23;0.82;;;0.40;;
13012;SDS011;22580;57.670;12.006;2023-08-21T01:31:52;0.40;;;0.40;;
13012;SDS011;22580;57.670;12.006;2023-08-21T01:34:24;0.30;;;0.30;;
13012;SDS011;22580;57.670;12.006;2023-08-21T01:36:55;0.30;;;0.30;;
13012;SDS011;22580;57.670;12.006;2023-08-21T01:39:22;0.30;;;0.30;;
13012;SDS011;22580;57.670;12.006;2023-08-21T01:41:51;0.35;;;0.30;;
13012;SDS011;22580;57.670;12.006;2023-08-21T01:44:18;0.20;;;0.20;;
13012;SDS011;22580;57.670;12.006;2023-08-21T01:46:45;0.20;;;0.20;;
13012;SDS011;22580;57.670;12.006;2023-08-21T01:49:12;0.50;;;0.50;;
13012;SDS011;22580;57.670;12.006;2023-08-21T01:51:39;0.40;;;0.40;;
13012;SDS011;22580;57.670;12.006;2023-08-21T01:54:06;0.30;;;0.30;;
13012;SDS011;22580;57.670;12.006;2023-08-21T01:56:33;0.40;;;0.40;;
13012;SDS011;22580;57.670;12.006;2023-08-21T01:59:01;0.47;;;0.47;;
13012;SDS011;22580;57.670;12.006;2023-08-21T02:01:28;0.50;;;0.50;;
13012;SDS011;22580;57.670;12.006;2023-08-21T02:03:55;0.30;;;0.30;;
13012;SDS011;22580;57.670;12.006;2023-08-21T02:06:22;0.40;;;0.40;;
13012;SDS011;22580;57.670;12.006;2023-08-21T02:08:49;0.43;;;0.30;;
13012;SDS011;22580;57.670;12.006;2023-08-21T02:11:16;0.30;;;0.30;;
13012;SDS011;22580;57.670;12.006;2023-08-21T02:13:43;0.20;;;0.20;;
13012;SDS011;22580;57.670;12.006;2023-08-21T02:16:11;0.20;;;0.20;;
13012;SDS011;22580;57.670;12.006;2023-08-21T02:18:38;0.30;;;0.30;;
13012;SDS011;22580;57.670;12.006;2023-08-21T02:21:05;0.15;;;0.15;;
13012;SDS011;22580;57.670;12.006;2023-08-21T02:23:32;0.45;;;0.30;;
13012;SDS011;22580;57.670;12.006;2023-08-21T02:25:59;0.30;;;0.30;;
13012;SDS011;22580;57.670;12.006;2023-08-21T02:28:26;0.20;;;0.20;;
13012;SDS011;22580;57.670;12.006;2023-08-21T02:30:53;0.22;;;0.22;;
13012;SDS011;22580;57.670;12.006;2023-08-21T02:33:21;0.40;;;0.30;;
13012;SDS011;22580;57.670;12.006;2023-08-21T02:35:48;0.28;;;0.28;;
13012;SDS011;22580;57.670;12.006;2023-08-21T02:38:16;0.20;;;0.20;;
13012;SDS011;22580;57.670;12.006;2023-08-21T02:40:43;0.50;;;0.22;;
13012;SDS011;22580;57.670;12.006;2023-08-21T02:43:10;0.60;;;0.32;;
13012;SDS011;22580;57.670;12.006;2023-08-21T02:45:37;0.28;;;0.28;;
13012;SDS011;22580;57.670;12.006;2023-08-21T02:48:04;0.85;;;0.68;;
13012;SDS011;22580;57.670;12.006;2023-08-21T02:50:35;0.50;;;0.50;;
13012;SDS011;22580;57.670;12.006;2023-08-21T02:53:02;0.30;;;0.30;;
13012;SDS011;22580;57.670;12.006;2023-08-21T02:55:29;0.30;;;0.30;;
13012;SDS011;22580;57.670;12.006;2023-08-21T02:57:56;0.40;;;0.40;;
13012;SDS011;22580;57.670;12.006;2023-08-21T03:00:23;0.82;;;0.82;;
13012;SDS011;22580;57.670;12.006;2023-08-21T03:02:50;1.70;;;0.70;;
13012;SDS011;22580;57.670;12.006;2023-08-21T03:05:17;0.68;;;0.68;;
13012;SDS011;22580;57.670;12.006;2023-08-21T03:07:46;1.10;;;0.57;;
13012;SDS011;22580;57.670;12.006;2023-08-21T03:10:13;0.47;;;0.43;;
13012;SDS011;22580;57.670;12.006;2023-08-21T03:12:40;1.67;;;0.90;;
13012;SDS011;22580;57.670;12.006;2023-08-21T03:15:07;1.02;;;0.77;;
13012;SDS011;22580;57.670;12.006;2023-08-21T03:17:34;0.90;;;0.88;;
13012;SDS011;22580;57.670;12.006;2023-08-21T03:20:01;0.60;;;0.60;;
13012;SDS011;22580;57.670;12.006;2023-08-21T03:22:30;0.60;;;0.60;;
13012;SDS011;22580;57.670;12.006;2023-08-21T03:24:59;0.40;;;0.40;;
13012;SDS011;22580;57.670;12.006;2023-08-21T03:27:26;0.40;;;0.40;;
13012;SDS011;22580;57.670;12.006;2023-08-21T03:29:53;0.80;;;0.77;;
13012;SDS011;22580;57.670;12.006;2023-08-21T03:32:20;1.48;;;0.70;;
13012;SDS011;22580;57.670;12.006;2023-08-21T03:34:47;1.63;;;1.10;;
13012;SDS011;22580;57.670;12.006;2023-08-21T03:37:14;1.42;;;1.00;;
13012;SDS011;22580;57.670;12.006;2023-08-21T03:39:41;1.05;;;0.70;;
13012;SDS011;22580;57.670;12.006;2023-08-21T03:42:09;0.70;;;0.70;;
13012;SDS011;22580;57.670;12.006;2023-08-21T03:44:37;1.00;;;0.90;;
13012;SDS011;22580;57.670;12.006;2023-08-21T03:47:04;1.42;;;0.80;;
13012;SDS011;22580;57.670;12.006;2023-08-21T03:49:31;0.52;;;0.40;;
13012;SDS011;22580;57.670;12.006;2023-08-21T03:51:58;1.17;;;0.85;;
13012;SDS011;22580;57.670;12.006;2023-08-21T03:54:25;0.70;;;0.68;;
13012;SDS011;22580;57.670;12.006;2023-08-21T03:56:52;0.60;;;0.60;;
13012;SDS011;22580;57.670;12.006;2023-08-21T03:59:21;0.40;;;0.40;;
13012;SDS011;22580;57.670;12.006;2023-08-21T04:01:49;0.68;;;0.52;;
13012;SDS011;22580;57.670;12.006;2023-08-21T04:04:15;0.40;;;0.40;;
13012;SDS011;22580;57.670;12.006;2023-08-21T04:06:42;0.57;;;0.57;;
13012;SDS011;22580;57.670;12.006;2023-08-21T04:09:10;0.47;;;0.47;;
13012;SDS011;22580;57.670;12.006;2023-08-21T04:11:37;0.50;;;0.50;;
13012;SDS011;22580;57.670;12.006;2023-08-21T04:14:04;0.30;;;0.30;;
13012;SDS011;22580;57.670;12.006;2023-08-21T04:16:32;0.40;;;0.40;;
13012;SDS011;22580;57.670;12.006;2023-08-21T04:18:59;0.30;;;0.30;;
13012;SDS011;22580;57.670;12.006;2023-08-21T04:21:26;0.98;;;0.80;;
13012;SDS011;22580;57.670;12.006;2023-08-21T04:23:53;1.45;;;0.80;;
13012;SDS011;22580;57.670;12.006;2023-08-21T04:26:20;0.73;;;0.70;;
13012;SDS011;22580;57.670;12.006;2023-08-21T04:28:47;0.90;;;0.73;;
13012;SDS011;22580;57.670;12.006;2023-08-21T04:31:14;0.60;;;0.60;;
13012;SDS011;22580;57.670;12.006;2023-08-21T04:33:42;0.60;;;0.60;;
13012;SDS011;22580;57.670;12.006;2023-08-21T04:36:14;0.50;;;0.50;;
13012;SDS011;22580;57.670;12.006;2023-08-21T04:38:42;1.00;;;0.60;;
13012;SDS011;22580;57.670;12.006;2023-08-21T04:41:09;0.50;;;0.50;;
13012;SDS011;22580;57.670;12.006;2023-08-21T04:43:37;0.60;;;0.60;;
13012;SDS011;22580;57.670;12.006;2023-08-21T04:46:04;0.68;;;0.50;;
13012;SDS011;22580;57.670;12.006;2023-08-21T04:48:31;0.45;;;0.45;;
13012;SDS011;22580;57.670;12.006;2023-08-21T04:51:00;0.40;;;0.40;;
13012;SDS011;22580;57.670;12.006;2023-08-21T04:53:27;0.40;;;0.40;;
13012;SDS011;22580;57.670;12.006;2023-08-21T04:55:54;0.30;;;0.30;;
13012;SDS011;22580;57.670;12.006;2023-08-21T04:58:21;0.20;;;0.20;;
13012;SDS011;22580;57.670;12.006;2023-08-21T05:00:48;0.30;;;0.30;;
13012;SDS011;22580;57.670;12.006;2023-08-21T05:03:15;0.70;;;0.70;;
13012;SDS011;22580;57.670;12.006;2023-08-21T05:05:51;0.70;;;0.70;;
13012;SDS011;22580;57.670;12.006;2023-08-21T05:08:20;1.30;;;1.10;;
13012;SDS011;22580;57.670;12.006;2023-08-21T05:10:47;1.00;;;1.00;;
13012;SDS011;22580;57.670;12.006;2023-08-21T05:13:14;1.95;;;1.00;;
13012;SDS011;22580;57.670;12.006;2023-08-21T05:15:43;0.90;;;0.70;;
13012;SDS011;22580;57.670;12.006;2023-08-21T05:18:10;0.55;;;0.55;;
13012;SDS011;22580;57.670;12.006;2023-08-21T05:20:37;0.52;;;0.52;;
13012;SDS011;22580;57.670;12.006;2023-08-21T05:23:05;0.50;;;0.50;;
13012;SDS011;22580;57.670;12.006;2023-08-21T05:25:34;0.60;;;0.60;;
13012;SDS011;22580;57.670;12.006;2023-08-21T05:28:00;0.30;;;0.30;;
13012;SDS011;22580;57.670;12.006;2023-08-21T05:30:28;0.50;;;0.50;;
13012;SDS011;22580;57.670;12.006;2023-08-21T05:32:55;0.40;;;0.40;;
13012;SDS011;22580;57.670;12.006;2023-08-21T05:35:23;0.40;;;0.40;;
13012;SDS011;22580;57.670;12.006;2023-08-21T05:37:51;0.47;;;0.47;;
13012;SDS011;22580;57.670;12.006;2023-08-21T05:40:18;0.50;;;0.50;;
13012;SDS011;22580;57.670;12.006;2023-08-21T05:42:47;0.40;;;0.40;;
13012;SDS011;22580;57.670;12.006;2023-08-21T05:45:14;0.70;;;0.30;;
13012;SDS011;22580;57.670;12.006;2023-08-21T05:47:43;0.20;;;0.20;;
13012;SDS011;22580;57.670;12.006;2023-08-21T05:50:10;0.35;;;0.35;;
13012;SDS011;22580;57.670;12.006;2023-08-21T05:52:37;0.20;;;0.20;;
13012;SDS011;22580;57.670;12.006;2023-08-21T05:55:05;0.40;;;0.40;;
13012;SDS011;22580;57.670;12.006;2023-08-21T05:57:32;0.50;;;0.50;;
13012;SDS011;22580;57.670;12.006;2023-08-21T06:00:02;0.50;;;0.50;;
13012;SDS011;22580;57.670;12.006;2023-08-21T06:02:31;0.52;;;0.40;;
13012;SDS011;22580;57.670;12.006;2023-08-21T06:05:00;0.88;;;0.45;;
13012;SDS011;22580;57.670;12.006;2023-08-21T06:07:28;0.40;;;0.40;;
13012;SDS011;22580;57.670;12.006;2023-08-21T06:09:55;0.32;;;0.32;;
13012;SDS011;22580;57.670;12.006;2023-08-21T06:12:22;0.30;;;0.30;;
13012;SDS011;22580;57.670;12.006;2023-08-21T06:14:51;0.20;;;0.20;;
13012;SDS011;22580;57.670;12.006;2023-08-21T06:17:20;0.28;;;0.28;;
13012;SDS011;22580;57.670;12.006;2023-08-21T06:19:47;0.40;;;0.40;;
13012;SDS011;22580;57.670;12.006;2023-08-21T06:22:14;0.20;;;0.20;;
13012;SDS011;22580;57.670;12.006;2023-08-21T06:24:41;0.35;;;0.35;;
13012;SDS011;22580;57.670;12.006;2023-08-21T06:27:08;0.38;;;0.38;;
13012;SDS011;22580;57.670;12.006;2023-08-21T06:29:36;0.70;;;0.60;;
13012;SDS011;22580;57.670;12.006;2023-08-21T06:32:08;0.63;;;0.63;;
13012;SDS011;22580;57.670;12.006;2023-08-21T06:34:37;1.20;;;0.73;;
13012;SDS011;22580;57.670;12.006;2023-08-21T06:37:04;0.60;;;0.60;;
13012;SDS011;22580;57.670;12.006;2023-08-21T06:39:31;1.48;;;1.00;;
13012;SDS011;22580;57.670;12.006;2023-08-21T06:42:00;1.38;;;0.90;;
13012;SDS011;22580;57.670;12.006;2023-08-21T06:44:28;1.98;;;1.10;;
13012;SDS011;22580;57.670;12.006;2023-08-21T06:46:55;2.40;;;1.58;;
13012;SDS011;22580;57.670;12.006;2023-08-21T06:49:22;1.33;;;1.00;;
13012;SDS011;22580;57.670;12.006;2023-08-21T06:51:51;1.35;;;0.82;;
13012;SDS011;22580;57.670;12.006;2023-08-21T06:54:17;1.20;;;0.88;;
13012;SDS011;22580;57.670;12.006;2023-08-21T06:56:45;1.08;;;0.90;;
13012;SDS011;22580;57.670;12.006;2023-08-21T06:59:13;0.63;;;0.63;;
13012;SDS011;22580;57.670;12.006;2023-08-21T07:01:41;1.58;;;1.17;;
13012;SDS011;22580;57.670;12.006;2023-08-21T07:04:07;2.28;;;0.93;;
13012;SDS011;22580;57.670;12.006;2023-08-21T07:06:34;1.67;;;1.08;;
13012;SDS011;22580;57.670;12.006;2023-08-21T07:09:04;0.95;;;0.77;;
13012;SDS011;22580;57.670;12.006;2023-08-21T07:11:31;0.80;;;0.80;;
13012;SDS011;22580;57.670;12.006;2023-08-21T07:13:58;1.98;;;1.15;;
13012;SDS011;22580;57.670;12.006;2023-08-21T07:16:25;1.67;;;1.00;;
13012;SDS011;22580;57.670;12.006;2023-08-21T07:18:52;1.20;;;1.10;;
13012;SDS011;22580;57.670;12.006;2023-08-21T07:21:20;2.25;;;1.35;;
13012;SDS011;22580;57.670;12.006;2023-08-21T07:23:47;0.90;;;0.80;;
13012;SDS011;22580;57.670;12.006;2023-08-21T07:26:18;1.30;;;1.08;;
13012;SDS011;22580;57.670;12.006;2023-08-21T07:28:45;2.72;;;1.40;;
13012;SDS011;22580;57.670;12.006;2023-08-21T07:31:12;1.48;;;1.08;;
13012;SDS011;22580;57.670;12.006;2023-08-21T07:33:39;0.88;;;0.80;;
13012;SDS011;22580;57.670;12.006;2023-08-21T07:36:06;1.35;;;0.90;;
13012;SDS011;22580;57.670;12.006;2023-08-21T07:38:32;1.05;;;0.90;;
13012;SDS011;22580;57.670;12.006;2023-08-21T07:41:03;1.70;;;1.10;;
13012;SDS011;22580;57.670;12.006;2023-08-21T07:43:39;0.75;;;0.70;;
13012;SDS011;22580;57.670;12.006;2023-08-21T07:46:08;1.10;;;1.00;;
13012;SDS011;22580;57.670;12.006;2023-08-21T07:48:40;1.52;;;1.00;;
13012;SDS011;22580;57.670;12.006;2023-08-21T07:51:07;1.13;;;0.95;;
13012;SDS011;22580;57.670;12.006;2023-08-21T07:53:39;1.55;;;1.15;;
13012;SDS011;22580;57.670;12.006;2023-08-21T07:56:06;1.85;;;1.05;;
13012;SDS011;22580;57.670;12.006;2023-08-21T07:58:33;0.90;;;0.90;;
13012;SDS011;22580;57.670;12.006;2023-08-21T08:01:02;1.13;;;0.90;;
13012;SDS011;22580;57.670;12.006;2023-08-21T08:03:29;1.75;;;0.90;;
13012;SDS011;22580;57.670;12.006;2023-08-21T08:05:57;2.00;;;1.08;;
13012;SDS011;22580;57.670;12.006;2023-08-21T08:08:24;2.35;;;1.45;;
13012;SDS011;22580;57.670;12.006;2023-08-21T08:10:51;2.33;;;1.13;;
13012;SDS011;22580;57.670;12.006;2023-08-21T08:13:20;1.10;;;1.00;;
13012;SDS011;22580;57.670;12.006;2023-08-21T08:15:47;0.88;;;0.88;;
13012;SDS011;22580;57.670;12.006;2023-08-21T08:18:15;1.33;;;1.00;;
13012;SDS011;22580;57.670;12.006;2023-08-21T08:20:43;2.05;;;1.27;;
13012;SDS011;22580;57.670;12.006;2023-08-21T08:23:12;1.95;;;1.20;;
13012;SDS011;22580;57.670;12.006;2023-08-21T08:25:39;2.55;;;1.50;;
13012;SDS011;22580;57.670;12.006;2023-08-21T08:28:06;1.70;;;1.30;;
13012;SDS011;22580;57.670;12.006;2023-08-21T08:30:35;2.35;;;1.40;;
13012;SDS011;22580;57.670;12.006;2023-08-21T08:33:02;1.73;;;1.25;;
13012;SDS011;22580;57.670;12.006;2023-08-21T08:35:31;2.05;;;1.60;;
13012;SDS011;22580;57.670;12.006;2023-08-21T08:37:59;1.67;;;1.25;;
13012;SDS011;22580;57.670;12.006;2023-08-21T08:40:27;1.85;;;1.40;;
13012;SDS011;22580;57.670;12.006;2023-08-21T08:42:54;3.33;;;1.73;;
13012;SDS011;22580;57.670;12.006;2023-08-21T08:45:24;1.70;;;1.60;;
13012;SDS011;22580;57.670;12.006;2023-08-21T08:47:55;2.13;;;1.73;;
13012;SDS011;22580;57.670;12.006;2023-08-21T08:50:25;2.55;;;1.55;;
13012;SDS011;22580;57.670;12.006;2023-08-21T08:52:58;1.80;;;1.30;;
13012;SDS011;22580;57.670;12.006;2023-08-21T08:55:26;1.85;;;1.40;;
13012;SDS011;22580;57.670;12.006;2023-08-21T08:57:53;1.40;;;1.25;;
13012;SDS011;22580;57.670;12.006;2023-08-21T09:00:21;1.45;;;1.17;;
13012;SDS011;22580;57.670;12.006;2023-08-21T09:02:48;1.58;;;1.20;;
13012;SDS011;22580;57.670;12.006;2023-08-21T09:05:18;1.35;;;1.13;;
13012;SDS011;22580;57.670;12.006;2023-08-21T09:07:45;2.15;;;1.38;;
13012;SDS011;22580;57.670;12.006;2023-08-21T09:10:14;1.50;;;1.13;;
13012;SDS011;22580;57.670;12.006;2023-08-21T09:12:44;1.42;;;1.17;;
13012;SDS011;22580;57.670;12.006;2023-08-21T09:15:12;1.25;;;1.00;;
13012;SDS011;22580;57.670;12.006;2023-08-21T09:17:39;3.15;;;1.65;;
13012;SDS011;22580;57.670;12.006;2023-08-21T09:20:07;1.17;;;1.08;;
13012;SDS011;22580;57.670;12.006;2023-08-21T09:22:35;0.90;;;0.90;;
13012;SDS011;22580;57.670;12.006;2023-08-21T09:25:02;1.60;;;1.40;;
13012;SDS011;22580;57.670;12.006;2023-08-21T09:27:33;2.25;;;1.60;;
13012;SDS011;22580;57.670;12.006;2023-08-21T09:30:03;2.47;;;2.00;;
13012;SDS011;22580;57.670;12.006;2023-08-21T09:32:30;3.95;;;1.80;;
13012;SDS011;22580;57.670;12.006;2023-08-21T09:35:20;2.20;;;1.30;;
13012;SDS011;22580;57.670;12.006;2023-08-21T09:37:48;2.03;;;1.70;;
13012;SDS011;22580;57.670;12.006;2023-08-21T09:40:18;4.72;;;2.45;;
13012;SDS011;22580;57.670;12.006;2023-08-21T09:42:47;3.63;;;2.30;;
13012;SDS011;22580;57.670;12.006;2023-08-21T09:45:19;2.58;;;1.70;;
13012;SDS011;22580;57.670;12.006;2023-08-21T09:47:47;3.83;;;1.60;;
13012;SDS011;22580;57.670;12.006;2023-08-21T09:50:14;3.53;;;1.60;;
13012;SDS011;22580;57.670;12.006;2023-08-21T09:52:46;3.92;;;1.70;;
13012;SDS011;22580;57.670;12.006;2023-08-21T09:55:13;6.65;;;2.90;;
13012;SDS011;22580;57.670;12.006;2023-08-21T09:57:41;9.35;;;4.57;;
13012;SDS011;22580;57.670;12.006;2023-08-21T10:00:13;5.07;;;2.88;;
13012;SDS011;22580;57.670;12.006;2023-08-21T10:02:45;3.13;;;2.00;;
13012;SDS011;22580;57.670;12.006;2023-08-21T10:05:18;2.80;;;1.98;;
13012;SDS011;22580;57.670;12.006;2023-08-21T10:07:46;3.47;;;1.95;;
13012;SDS011;22580;57.670;12.006;2023-08-21T10:10:14;2.92;;;1.70;;
13012;SDS011;22580;57.670;12.006;2023-08-21T10:12:42;1.83;;;1.23;;
13012;SDS011;22580;57.670;12.006;2023-08-21T10:15:11;1.30;;;1.05;;
13012;SDS011;22580;57.670;12.006;2023-08-21T10:17:39;1.45;;;0.90;;
13012;SDS011;22580;57.670;12.006;2023-08-21T10:20:06;1.00;;;0.90;;
13012;SDS011;22580;57.670;12.006;2023-08-21T10:22:44;2.28;;;1.20;;
13012;SDS011;22580;57.670;12.006;2023-08-21T10:25:14;1.50;;;1.08;;
13012;SDS011;22580;57.670;12.006;2023-08-21T10:27:42;1.95;;;1.20;;
13012;SDS011;22580;57.670;12.006;2023-08-21T10:30:15;1.60;;;1.05;;
13012;SDS011;22580;57.670;12.006;2023-08-21T10:32:46;2.03;;;1.23;;
13012;SDS011;22580;57.670;12.006;2023-08-21T10:35:18;1.92;;;1.20;;
13012;SDS011;22580;57.670;12.006;2023-08-21T10:40:35;2.75;;;1.25;;
13012;SDS011;22580;57.670;12.006;2023-08-21T10:43:04;2.45;;;1.30;;
13012;SDS011;22580;57.670;12.006;2023-08-21T10:45:33;2.22;;;1.17;;
13012;SDS011;22580;57.670;12.006;2023-08-21T10:48:20;1.80;;;1.30;;
13012;SDS011;22580;57.670;12.006;2023-08-21T10:50:47;2.97;;;1.55;;
13012;SDS011;22580;57.670;12.006;2023-08-21T10:53:14;3.00;;;1.20;;
13012;SDS011;22580;57.670;12.006;2023-08-21T10:55:41;1.75;;;1.42;;
13012;SDS011;22580;57.670;12.006;2023-08-21T10:58:09;2.05;;;1.10;;
13012;SDS011;22580;57.670;12.006;2023-08-21T11:00:38;1.25;;;1.15;;
13012;SDS011;22580;57.670;12.006;2023-08-21T11:03:05;2.13;;;1.40;;
13012;SDS011;22580;57.670;12.006;2023-08-21T11:05:32;1.98;;;1.20;;
13012;SDS011;22580;57.670;12.006;2023-08-21T11:07:59;1.80;;;1.10;;
13012;SDS011;22580;57.670;12.006;2023-08-21T11:10:27;2.55;;;1.50;;
13012;SDS011;22580;57.670;12.006;2023-08-21T11:12:56;0.93;;;0.90;;
13012;SDS011;22580;57.670;12.006;2023-08-21T11:15:24;1.38;;;1.00;;
13012;SDS011;22580;57.670;12.006;2023-08-21T11:17:55;2.55;;;1.23;;
13012;SDS011;22580;57.670;12.006;2023-08-21T11:20:27;1.35;;;1.10;;
13012;SDS011;22580;57.670;12.006;2023-08-21T11:22:58;1.98;;;1.25;;
13012;SDS011;22580;57.670;12.006;2023-08-21T11:25:29;1.50;;;1.13;;
13012;SDS011;22580;57.670;12.006;2023-08-21T11:27:56;1.35;;;0.93;;
13012;SDS011;22580;57.670;12.006;2023-08-21T11:30:23;1.77;;;1.33;;
13012;SDS011;22580;57.670;12.006;2023-08-21T11:33:05;1.77;;;1.08;;
13012;SDS011;22580;57.670;12.006;2023-08-21T11:35:34;2.67;;;1.45;;
13012;SDS011;22580;57.670;12.006;2023-08-21T11:38:02;1.98;;;1.15;;
13012;SDS011;22580;57.670;12.006;2023-08-21T11:40:30;2.08;;;0.93;;
13012;SDS011;22580;57.670;12.006;2023-08-21T11:42:59;2.03;;;1.30;;
13012;SDS011;22580;57.670;12.006;2023-08-21T11:45:27;2.38;;;1.42;;
13012;SDS011;22580;57.670;12.006;2023-08-21T11:47:55;0.98;;;0.77;;
13012;SDS011;22580;57.670;12.006;2023-08-21T11:50:26;2.58;;;1.10;;
13012;SDS011;22580;57.670;12.006;2023-08-21T11:52:54;0.90;;;0.90;;
13012;SDS011;22580;57.670;12.006;2023-08-21T11:55:21;1.20;;;1.02;;
13012;SDS011;22580;57.670;12.006;2023-08-21T11:57:49;1.00;;;0.90;;
13012;SDS011;22580;57.670;12.006;2023-08-21T12:00:17;1.05;;;0.85;;
13012;SDS011;22580;57.670;12.006;2023-08-21T12:02:53;1.60;;;1.10;;
13012;SDS011;22580;57.670;12.006;2023-08-21T12:05:21;1.73;;;1.15;;
13012;SDS011;22580;57.670;12.006;2023-08-21T12:07:52;1.30;;;1.17;;
13012;SDS011;22580;57.670;12.006;2023-08-21T12:10:23;1.98;;;1.40;;
13012;SDS011;22580;57.670;12.006;2023-08-21T12:12:50;2.38;;;1.38;;
13012;SDS011;22580;57.670;12.006;2023-08-21T12:15:18;1.85;;;1.15;;
13012;SDS011;22580;57.670;12.006;2023-08-21T12:17:47;1.55;;;1.10;;
13012;SDS011;22580;57.670;12.006;2023-08-21T12:20:13;2.30;;;1.35;;
13012;SDS011;22580;57.670;12.006;2023-08-21T12:22:40;3.03;;;1.20;;
13012;SDS011;22580;57.670;12.006;2023-08-21T12:25:10;2.40;;;1.15;;
13012;SDS011;22580;57.670;12.006;2023-08-21T12:27:38;1.80;;;1.20;;
13012;SDS011;22580;57.670;12.006;2023-08-21T12:30:06;2.38;;;1.33;;
13012;SDS011;22580;57.670;12.006;2023-08-21T12:32:33;1.20;;;1.10;;
13012;SDS011;22580;57.670;12.006;2023-08-21T12:35:00;2.03;;;0.95;;
13012;SDS011;22580;57.670;12.006;2023-08-21T12:37:29;2.47;;;1.27;;
13012;SDS011;22580;57.670;12.006;2023-08-21T12:39:56;1.05;;;0.98;;
13012;SDS011;22580;57.670;12.006;2023-08-21T12:42:25;2.53;;;1.30;;
13012;SDS011;22580;57.670;12.006;2023-08-21T12:44:52;1.73;;;1.42;;
13012;SDS011;22580;57.670;12.006;2023-08-21T12:47:19;0.98;;;0.90;;
13012;SDS011;22580;57.670;12.006;2023-08-21T12:49:46;1.13;;;0.90;;
13012;SDS011;22580;57.670;12.006;2023-08-21T12:52:14;2.20;;;1.33;;
13012;SDS011;22580;57.670;12.006;2023-08-21T12:54:41;1.25;;;1.15;;
13012;SDS011;22580;57.670;12.006;2023-08-21T12:57:08;1.88;;;1.08;;
13012;SDS011;22580;57.670;12.006;2023-08-21T12:59:37;1.23;;;0.90;;
13012;SDS011;22580;57.670;12.006;2023-08-21T13:02:05;1.00;;;0.90;;
13012;SDS011;22580;57.670;12.006;2023-08-21T13:04:32;0.93;;;0.90;;
13012;SDS011;22580;57.670;12.006;2023-08-21T13:06:59;1.15;;;1.05;;
13012;SDS011;22580;57.670;12.006;2023-08-21T13:09:28;1.92;;;1.40;;
13012;SDS011;22580;57.670;12.006;2023-08-21T13:11:55;1.20;;;1.10;;
13012;SDS011;22580;57.670;12.006;2023-08-21T13:14:22;2.38;;;1.30;;
13012;SDS011;22580;57.670;12.006;2023-08-21T13:16:51;1.60;;;1.20;;
13012;SDS011;22580;57.670;12.006;2023-08-21T13:19:21;1.73;;;0.90;;
13012;SDS011;22580;57.670;12.006;2023-08-21T13:21:48;1.60;;;0.80;;
13012;SDS011;22580;57.670;12.006;2023-08-21T13:24:15;2.75;;;1.30;;
13012;SDS011;22580;57.670;12.006;2023-08-21T13:26:41;1.30;;;0.88;;
13012;SDS011;22580;57.670;12.006;2023-08-21T13:29:08;1.23;;;0.90;;
13012;SDS011;22580;57.670;12.006;2023-08-21T13:31:35;1.55;;;0.93;;
13012;SDS011;22580;57.670;12.006;2023-08-21T13:34:04;1.00;;;0.90;;
13012;SDS011;22580;57.670;12.006;2023-08-21T13:36:31;1.17;;;0.90;;
13012;SDS011;22580;57.670;12.006;2023-08-21T13:38:58;0.75;;;0.73;;
13012;SDS011;22580;57.670;12.006;2023-08-21T13:41:25;1.65;;;0.85;;
13012;SDS011;22580;57.670;12.006;2023-08-21T13:43:52;1.52;;;0.90;;
13012;SDS011;22580;57.670;12.006;2023-08-21T13:46:19;1.75;;;1.00;;
13012;SDS011;22580;57.670;12.006;2023-08-21T13:48:46;1.13;;;0.98;;
13012;SDS011;22580;57.670;12.006;2023-08-21T13:51:14;1.15;;;1.00;;
13012;SDS011;22580;57.670;12.006;2023-08-21T13:53:41;1.02;;;0.93;;
13012;SDS011;22580;57.670;12.006;2023-08-21T13:56:08;0.73;;;0.70;;
13012;SDS011;22580;57.670;12.006;2023-08-21T13:58:35;0.98;;;0.80;;
13012;SDS011;22580;57.670;12.006;2023-08-21T14:01:03;1.65;;;1.05;;
13012;SDS011;22580;57.670;12.006;2023-08-21T14:03:31;1.00;;;0.90;;
13012;SDS011;22580;57.670;12.006;2023-08-21T14:05:58;1.05;;;0.93;;
13012;SDS011;22580;57.670;12.006;2023-08-21T14:08:27;1.10;;;0.85;;
13012;SDS011;22580;57.670;12.006;2023-08-21T14:10:54;1.15;;;0.70;;
13012;SDS011;22580;57.670;12.006;2023-08-21T14:13:21;0.82;;;0.70;;
13012;SDS011;22580;57.670;12.006;2023-08-21T14:15:48;0.75;;;0.60;;
13012;SDS011;22580;57.670;12.006;2023-08-21T14:18:15;1.20;;;0.90;;
13012;SDS011;22580;57.670;12.006;2023-08-21T14:20:42;0.63;;;0.63;;
13012;SDS011;22580;57.670;12.006;2023-08-21T14:23:09;0.70;;;0.70;;
13012;SDS011;22580;57.670;12.006;2023-08-21T14:25:38;1.20;;;0.90;;
13012;SDS011;22580;57.670;12.006;2023-08-21T14:28:05;2.22;;;1.02;;
13012;SDS011;22580;57.670;12.006;2023-08-21T14:30:33;1.30;;;0.90;;
13012;SDS011;22580;57.670;12.006;2023-08-21T14:33:00;2.72;;;1.00;;
13012;SDS011;22580;57.670;12.006;2023-08-21T14:35:27;1.30;;;0.82;;
13012;SDS011;22580;57.670;12.006;2023-08-21T14:37:54;0.90;;;0.90;;
13012;SDS011;22580;57.670;12.006;2023-08-21T14:40:21;1.50;;;0.93;;